Time;durP1;ratioP1;P1;durP2;ratioP2;P2;SDS_P1;SDS_P2;PMS_P1;PMS_P2;Temp;Humidity;BMP_temperature;BMP_pressure;BME280_temperature;BME280_humidity;BME280_pressure;Samples;Min_cycle;Max_cycle;Signal;HPM_P1;HPM_P2
2022/06/29 00:00:12;;;;;;;2.20;0.90;;;;;;;;;;8353529;28;20032;-57
2022/06/29 00:04:12;;;;;;;1.27;0.88;;;;;;;;;;8353669;28;20063;-58
2022/06/29 00:08:12;;;;;;;1.55;0.93;;;;;;;;;;8353594;28;20500;-58
2022/06/29 00:12:13;;;;;;;4.28;0.98;;;;;;;;;;8352117;28;20115;-58
2022/06/29 00:16:13;;;;;;;3.65;1.00;;;;;;;;;;8353360;28;20039;-58
2022/06/29 00:20:13;;;;;;;2.83;0.80;;;;;;;;;;8353880;28;20110;-57
2022/06/29 00:24:13;;;;;;;1.90;0.93;;;;;;;;;;8354400;28;20036;-58
2022/06/29 00:28:14;;;;;;;1.63;0.98;;;;;;;;;;8353019;28;20037;-60
2022/06/29 00:32:14;;;;;;;1.08;0.88;;;;;;;;;;8353271;28;20040;-58
2022/06/29 00:36:14;;;;;;;1.63;0.97;;;;;;;;;;8353732;28;20048;-59
2022/06/29 00:40:15;;;;;;;2.13;0.80;;;;;;;;;;8351441;28;20829;-59
2022/06/29 00:44:17;;;;;;;2.20;0.90;;;;;;;;;;8351822;28;20539;-58
2022/06/29 00:48:17;;;;;;;1.65;0.80;;;;;;;;;;8351479;28;20040;-58
2022/06/29 00:52:19;;;;;;;1.98;1.00;;;;;;;;;;8352984;28;20075;-58
2022/06/29 00:56:21;;;;;;;1.33;0.90;;;;;;;;;;8351554;28;20028;-58
2022/06/29 01:00:21;;;;;;;1.35;0.90;;;;;;;;;;8351265;28;20131;-59
2022/06/29 01:04:22;;;;;;;1.00;0.80;;;;;;;;;;8350466;28;20052;-58
2022/06/29 01:08:22;;;;;;;2.15;1.00;;;;;;;;;;8350281;28;20036;-59
2022/06/29 01:12:23;;;;;;;1.88;0.90;;;;;;;;;;8347815;28;20036;-58
2022/06/29 01:16:23;;;;;;;0.85;0.80;;;;;;;;;;8346871;28;20043;-58
2022/06/29 01:20:23;;;;;;;1.37;1.10;;;;;;;;;;8346176;28;20032;-58
2022/06/29 01:24:23;;;;;;;1.20;1.00;;;;;;;;;;8351635;28;20278;-59
2022/06/29 01:28:24;;;;;;;1.83;0.93;;;;;;;;;;8351590;28;20458;-58
2022/06/29 01:32:24;;;;;;;4.30;0.90;;;;;;;;;;8349056;28;20040;-58
2022/06/29 01:36:24;;;;;;;2.60;0.90;;;;;;;;;;8348591;28;20472;-58
2022/06/29 01:40:24;;;;;;;1.08;0.95;;;;;;;;;;8351070;28;20024;-58
2022/06/29 01:44:24;;;;;;;3.70;1.17;;;;;;;;;;8349117;28;20070;-58
2022/06/29 01:48:25;;;;;;;1.00;0.90;;;;;;;;;;8350874;28;20036;-58
2022/06/29 01:52:25;;;;;;;4.10;1.17;;;;;;;;;;8350701;28;20024;-57
2022/06/29 01:56:25;;;;;;;2.38;0.90;;;;;;;;;;8350364;28;20051;-57
2022/06/29 02:00:25;;;;;;;2.28;0.90;;;;;;;;;;8348328;28;20059;-58
2022/06/29 02:04:25;;;;;;;1.10;0.75;;;;;;;;;;8350375;28;20109;-57
2022/06/29 02:08:26;;;;;;;2.92;0.90;;;;;;;;;;8350053;28;20705;-58
2022/06/29 02:12:26;;;;;;;2.55;1.30;;;;;;;;;;8349762;28;20323;-57
2022/06/29 02:16:27;;;;;;;1.20;0.90;;;;;;;;;;8347834;28;20145;-57
2022/06/29 02:20:27;;;;;;;0.95;0.93;;;;;;;;;;8349503;28;20504;-58
2022/06/29 02:24:28;;;;;;;6.17;1.30;;;;;;;;;;8349339;28;20375;-57
2022/06/29 02:28:28;;;;;;;1.23;0.93;;;;;;;;;;8349722;28;20445;-58
2022/06/29 02:36:47;;;;;;;2.70;0.90;;;;;;;;;;8349012;28;20035;-57
2022/06/29 02:40:47;;;;;;;2.93;0.90;;;;;;;;;;8347926;28;20544;-58
2022/06/29 02:44:48;;;;;;;1.27;0.93;;;;;;;;;;8349011;28;20016;-57
2022/06/29 02:48:48;;;;;;;3.88;1.20;;;;;;;;;;8348237;28;20404;-58
2022/06/29 02:52:48;;;;;;;1.27;1.00;;;;;;;;;;8347968;28;20024;-57
2022/06/29 02:56:48;;;;;;;1.05;0.95;;;;;;;;;;8347477;28;20021;-57
2022/06/29 03:00:48;;;;;;;3.08;1.10;;;;;;;;;;8346165;28;20846;-57
2022/06/29 03:04:49;;;;;;;1.55;1.08;;;;;;;;;;8349921;28;20461;-57
2022/06/29 03:08:49;;;;;;;2.38;1.00;;;;;;;;;;8348070;28;20025;-58
2022/06/29 03:12:49;;;;;;;0.95;0.90;;;;;;;;;;8344451;28;20036;-57
2022/06/29 03:16:50;;;;;;;0.80;0.80;;;;;;;;;;8347429;28;20048;-58
2022/06/29 03:20:50;;;;;;;2.63;1.00;;;;;;;;;;8352435;28;20544;-57
2022/06/29 03:24:50;;;;;;;1.50;1.10;;;;;;;;;;8355582;28;20036;-57
2022/06/29 03:28:52;;;;;;;1.23;0.88;;;;;;;;;;8353524;28;20038;-57
2022/06/29 03:32:52;;;;;;;1.48;1.00;;;;;;;;;;8353090;28;20045;-57
2022/06/29 03:36:53;;;;;;;1.20;0.80;;;;;;;;;;8352372;28;20078;-57
2022/06/29 03:40:53;;;;;;;1.00;0.90;;;;;;;;;;8355795;28;20078;-58
2022/06/29 03:44:55;;;;;;;2.43;1.07;;;;;;;;;;8352526;28;20035;-57
2022/06/29 03:48:55;;;;;;;1.00;0.90;;;;;;;;;;8354479;28;20984;-57
2022/06/29 03:52:55;;;;;;;1.15;1.00;;;;;;;;;;8352975;28;20039;-57
2022/06/29 03:56:56;;;;;;;1.10;1.00;;;;;;;;;;8353897;28;21212;-58
2022/06/29 04:00:56;;;;;;;0.93;0.93;;;;;;;;;;8353890;28;20033;-57
2022/06/29 04:04:56;;;;;;;1.20;1.00;;;;;;;;;;8356555;28;20032;-57
2022/06/29 04:08:56;;;;;;;3.17;0.90;;;;;;;;;;8355804;28;20035;-57
2022/06/29 04:12:57;;;;;;;1.65;0.98;;;;;;;;;;8354300;28;20481;-57
2022/06/29 04:16:57;;;;;;;1.43;0.90;;;;;;;;;;8351235;28;20097;-57
2022/06/29 04:21:07;;;;;;;1.02;0.90;;;;;;;;;;8357994;28;20351;-57
2022/06/29 04:25:07;;;;;;;2.42;1.05;;;;;;;;;;8350340;28;20078;-57
2022/06/29 04:29:08;;;;;;;4.53;1.30;;;;;;;;;;8352409;28;20157;-57
2022/06/29 04:33:08;;;;;;;2.88;1.20;;;;;;;;;;8351078;28;20402;-57
2022/06/29 04:37:08;;;;;;;2.00;1.10;;;;;;;;;;8354400;28;20826;-57
2022/06/29 04:41:08;;;;;;;3.22;0.95;;;;;;;;;;8350883;28;20880;-56
2022/06/29 04:46:19;;;;;;;1.73;1.00;;;;;;;;;;8351877;28;20484;-57
2022/06/29 04:49:29;;;;;;;2.55;1.00;;;;;;;;;;8347283;28;20377;-57
2022/06/29 04:53:29;;;;;;;6.57;1.33;;;;;;;;;;8351621;28;20267;-57
2022/06/29 04:57:29;;;;;;;2.57;1.03;;;;;;;;;;8352090;28;20035;-57
2022/06/29 05:01:30;;;;;;;2.08;1.08;;;;;;;;;;8349635;28;20028;-56
2022/06/29 05:05:30;;;;;;;2.50;1.20;;;;;;;;;;8352017;28;20020;-57
2022/06/29 05:09:31;;;;;;;2.35;1.05;;;;;;;;;;8352007;28;20063;-58
2022/06/29 05:13:31;;;;;;;4.45;1.20;;;;;;;;;;8350499;28;20604;-57
2022/06/29 05:17:36;;;;;;;3.58;1.20;;;;;;;;;;8348704;28;20059;-56
2022/06/29 05:21:36;;;;;;;1.77;1.00;;;;;;;;;;8350152;28;20063;-57
2022/06/29 05:25:36;;;;;;;1.80;1.05;;;;;;;;;;8350129;28;20063;-57
2022/06/29 05:29:37;;;;;;;2.55;1.20;;;;;;;;;;8351110;28;20476;-57
2022/06/29 05:33:37;;;;;;;1.53;1.13;;;;;;;;;;8348897;28;20059;-58
2022/06/29 05:37:37;;;;;;;2.45;1.40;;;;;;;;;;8350883;28;20304;-57
2022/06/29 05:41:39;;;;;;;4.65;1.33;;;;;;;;;;8345346;28;20665;-60
2022/06/29 05:45:39;;;;;;;1.90;1.05;;;;;;;;;;8342442;28;20036;-58
2022/06/29 05:49:39;;;;;;;1.97;1.20;;;;;;;;;;8346786;28;20773;-58
2022/06/29 05:53:39;;;;;;;2.17;1.17;;;;;;;;;;8344290;28;20033;-58
2022/06/29 05:57:40;;;;;;;3.65;1.30;;;;;;;;;;8347718;28;20025;-58
2022/06/29 06:01:40;;;;;;;3.53;1.27;;;;;;;;;;8351018;28;21040;-58
2022/06/29 06:05:40;;;;;;;2.80;1.20;;;;;;;;;;8350862;28;20032;-58
2022/06/29 06:09:40;;;;;;;4.83;1.50;;;;;;;;;;8348532;28;20025;-58
2022/06/29 06:13:41;;;;;;;1.38;1.27;;;;;;;;;;8350454;28;20020;-60
2022/06/29 06:17:42;;;;;;;4.53;1.20;;;;;;;;;;8347899;28;20040;-58
2022/06/29 06:21:42;;;;;;;4.28;1.20;;;;;;;;;;8350993;28;20681;-58
2022/06/29 06:25:42;;;;;;;2.28;1.35;;;;;;;;;;8348097;28;20527;-58
2022/06/29 06:29:43;;;;;;;3.33;1.20;;;;;;;;;;8346324;28;20052;-58
2022/06/29 06:33:43;;;;;;;4.50;1.42;;;;;;;;;;8345280;28;20287;-60
2022/06/29 06:37:44;;;;;;;2.92;1.33;;;;;;;;;;8346700;28;20033;-59
2022/06/29 06:41:44;;;;;;;1.75;1.50;;;;;;;;;;8348885;28;20028;-60
2022/06/29 06:45:44;;;;;;;3.20;1.38;;;;;;;;;;8349010;28;20029;-59
2022/06/29 06:49:44;;;;;;;1.73;1.53;;;;;;;;;;8346041;28;20111;-59
2022/06/29 06:53:46;;;;;;;1.40;1.30;;;;;;;;;;8348298;28;20025;-59
2022/06/29 06:57:46;;;;;;;1.70;1.60;;;;;;;;;;8350907;28;20355;-58
2022/06/29 07:01:46;;;;;;;2.22;1.50;;;;;;;;;;8351984;28;20126;-60
2022/06/29 07:05:46;;;;;;;1.73;1.30;;;;;;;;;;8353060;28;20480;-59
2022/06/29 07:09:46;;;;;;;1.95;1.40;;;;;;;;;;8355346;28;20564;-59
2022/06/29 07:13:47;;;;;;;2.00;1.50;;;;;;;;;;8354357;28;20071;-60
2022/06/29 07:17:47;;;;;;;2.28;1.40;;;;;;;;;;8352199;28;20063;-60
2022/06/29 07:21:47;;;;;;;1.95;1.60;;;;;;;;;;8355223;28;20036;-59
2022/06/29 07:25:47;;;;;;;1.67;1.52;;;;;;;;;;8356050;28;20032;-59
2022/06/29 07:29:52;;;;;;;3.10;1.50;;;;;;;;;;8354027;28;20826;-58
2022/06/29 07:33:52;;;;;;;2.58;1.70;;;;;;;;;;8351778;28;20451;-59
2022/06/29 07:37:53;;;;;;;3.38;1.67;;;;;;;;;;8352913;28;20079;-60
2022/06/29 07:41:53;;;;;;;1.80;1.52;;;;;;;;;;8353078;28;20035;-58
2022/06/29 07:45:55;;;;;;;2.55;1.55;;;;;;;;;;8354674;28;20573;-59
2022/06/29 07:49:55;;;;;;;2.70;1.90;;;;;;;;;;8354700;28;20043;-59
2022/06/29 07:53:55;;;;;;;2.58;1.80;;;;;;;;;;8354646;28;20032;-58
2022/06/29 07:57:56;;;;;;;2.55;1.52;;;;;;;;;;8352455;28;20021;-59
2022/06/29 08:01:56;;;;;;;2.13;1.80;;;;;;;;;;8352020;28;20136;-58
2022/06/29 08:05:56;;;;;;;1.95;1.50;;;;;;;;;;8351431;28;20043;-59
2022/06/29 08:09:56;;;;;;;2.20;1.50;;;;;;;;;;8352032;28;20020;-60
2022/06/29 08:13:57;;;;;;;2.15;1.55;;;;;;;;;;8352335;28;20157;-59
2022/06/29 08:17:57;;;;;;;1.70;1.60;;;;;;;;;;8351968;28;20032;-60
2022/06/29 08:21:57;;;;;;;1.70;1.60;;;;;;;;;;8354835;28;20032;-58
2022/06/29 08:25:58;;;;;;;4.35;1.50;;;;;;;;;;8350998;28;20035;-60
2022/06/29 08:29:58;;;;;;;2.58;1.50;;;;;;;;;;8353820;28;20025;-59
2022/06/29 08:33:58;;;;;;;1.60;1.48;;;;;;;;;;8348828;28;20064;-58
2022/06/29 08:37:59;;;;;;;8.00;1.90;;;;;;;;;;8353341;28;20020;-59
2022/06/29 08:42:00;;;;;;;2.58;1.60;;;;;;;;;;8350382;28;20028;-59
2022/06/29 08:46:00;;;;;;;2.47;1.60;;;;;;;;;;8352210;28;20202;-60
2022/06/29 08:50:07;;;;;;;1.70;1.50;;;;;;;;;;8350550;28;20033;-59
2022/06/29 08:54:07;;;;;;;2.60;1.90;;;;;;;;;;8349439;28;20035;-58
2022/06/29 08:58:09;;;;;;;1.95;1.80;;;;;;;;;;8351562;28;20032;-58
2022/06/29 09:02:10;;;;;;;2.63;1.80;;;;;;;;;;8350006;28;20041;-58
2022/06/29 09:06:11;;;;;;;2.42;1.80;;;;;;;;;;8350910;28;20075;-59
2022/06/29 09:10:12;;;;;;;1.77;1.67;;;;;;;;;;8350657;28;20140;-59
2022/06/29 09:14:22;;;;;;;2.20;1.63;;;;;;;;;;8350230;28;20013;-58
2022/06/29 09:18:24;;;;;;;5.18;1.60;;;;;;;;;;8348837;28;20036;-60
2022/06/29 09:22:24;;;;;;;1.52;1.42;;;;;;;;;;8350593;28;20138;-60
2022/06/29 09:26:28;;;;;;;3.85;1.77;;;;;;;;;;8350076;28;20366;-58
2022/06/29 09:30:30;;;;;;;4.80;1.70;;;;;;;;;;8349382;28;20048;-58
2022/06/29 09:34:30;;;;;;;2.47;1.70;;;;;;;;;;8350423;28;20036;-59
2022/06/29 09:38:30;;;;;;;3.17;1.60;;;;;;;;;;8350823;28;20028;-59
2022/06/29 09:42:30;;;;;;;1.60;1.50;;;;;;;;;;8350309;28;20031;-59
2022/06/29 09:46:31;;;;;;;1.80;1.70;;;;;;;;;;8347104;28;20036;-60
2022/06/29 09:50:32;;;;;;;2.03;1.65;;;;;;;;;;8346068;28;20138;-59
2022/06/29 09:54:41;;;;;;;4.93;1.80;;;;;;;;;;8348680;28;20029;-59
2022/06/29 09:58:44;;;;;;;2.33;1.60;;;;;;;;;;8350463;28;20464;-59
2022/06/29 10:02:45;;;;;;;2.33;1.60;;;;;;;;;;8349334;28;20110;-59
2022/06/29 10:06:45;;;;;;;1.75;1.45;;;;;;;;;;8351030;28;20093;-59
2022/06/29 10:10:50;;;;;;;4.30;1.60;;;;;;;;;;8348266;28;20142;-59
2022/06/29 10:15:03;;;;;;;4.50;1.80;;;;;;;;;;8351125;28;20151;-59
2022/06/29 10:19:24;;;;;;;1.52;1.42;;;;;;;;;;8347458;28;20481;-59
2022/06/29 10:23:44;;;;;;;6.47;1.80;;;;;;;;;;8347269;28;20029;-58
2022/06/29 10:28:03;;;;;;;2.60;1.70;;;;;;;;;;8353494;28;20024;-59
2022/06/29 10:32:11;;;;;;;4.60;1.80;;;;;;;;;;8353198;28;20603;-60
2022/06/29 10:36:11;;;;;;;4.57;1.77;;;;;;;;;;8355539;28;20028;-59
2022/06/29 10:40:31;;;;;;;7.05;2.13;;;;;;;;;;8354935;28;20963;-59
2022/06/29 10:44:50;;;;;;;6.72;1.60;;;;;;;;;;8353451;28;20045;-58
2022/06/29 10:49:09;;;;;;;5.10;1.83;;;;;;;;;;8352486;28;20047;-59
2022/06/29 10:53:11;;;;;;;2.65;1.50;;;;;;;;;;8350631;28;20028;-59
2022/06/29 10:57:11;;;;;;;3.63;1.60;;;;;;;;;;8353287;28;20586;-59
2022/06/29 11:01:11;;;;;;;3.20;1.60;;;;;;;;;;8352732;28;20374;-59
2022/06/29 11:05:12;;;;;;;2.17;1.73;;;;;;;;;;8353346;28;20292;-59
2022/06/29 11:13:31;;;;;;;1.83;1.70;;;;;;;;;;8352097;28;20043;-59
2022/06/29 11:17:43;;;;;;;3.10;1.60;;;;;;;;;;8353502;28;20040;-58
2022/06/29 11:22:04;;;;;;;2.47;1.80;;;;;;;;;;8352881;28;20021;-59
2022/06/29 11:26:05;;;;;;;5.80;1.65;;;;;;;;;;8351937;28;20048;-59
2022/06/29 11:30:07;;;;;;;2.63;1.70;;;;;;;;;;8349703;28;20025;-58
2022/06/29 11:34:07;;;;;;;1.73;1.63;;;;;;;;;;8353965;28;20488;-58
2022/06/29 11:38:08;;;;;;;3.63;1.80;;;;;;;;;;8351070;28;20021;-59
2022/06/29 11:46:27;;;;;;;2.40;1.70;;;;;;;;;;8350529;28;20056;-59
2022/06/29 11:50:27;;;;;;;4.00;1.83;;;;;;;;;;8351734;28;20017;-60
2022/06/29 11:54:47;;;;;;;2.78;1.63;;;;;;;;;;8351330;28;20043;-59
2022/06/29 11:58:53;;;;;;;2.00;1.60;;;;;;;;;;8349938;28;20036;-58
2022/06/29 12:02:57;;;;;;;2.90;1.90;;;;;;;;;;8350135;28;20040;-60
2022/06/29 12:07:16;;;;;;;2.83;1.63;;;;;;;;;;8351893;28;20020;-60
2022/06/29 12:11:16;;;;;;;2.75;1.73;;;;;;;;;;8343325;28;20043;-60
2022/06/29 12:15:17;;;;;;;1.95;1.55;;;;;;;;;;8348811;28;20020;-59
2022/06/29 12:19:17;;;;;;;2.63;1.65;;;;;;;;;;8349641;28;20104;-59
2022/06/29 12:23:17;;;;;;;2.28;1.50;;;;;;;;;;8351094;28;20032;-59
2022/06/29 12:27:18;;;;;;;1.63;1.53;;;;;;;;;;8350768;28;20123;-59
2022/06/29 12:31:18;;;;;;;3.38;1.70;;;;;;;;;;8348056;28;20181;-60
2022/06/29 12:35:18;;;;;;;1.60;1.50;;;;;;;;;;8349017;28;20017;-59
2022/06/29 12:39:18;;;;;;;2.33;1.70;;;;;;;;;;8350046;28;20025;-59
2022/06/29 12:43:18;;;;;;;7.97;1.77;;;;;;;;;;8348376;28;20017;-59
2022/06/29 12:47:19;;;;;;;3.07;1.70;;;;;;;;;;8349562;28;20079;-59
2022/06/29 12:51:19;;;;;;;5.15;1.80;;;;;;;;;;8349699;28;20278;-59
2022/06/29 12:55:20;;;;;;;1.75;1.65;;;;;;;;;;8347511;28;20021;-59
2022/06/29 12:59:21;;;;;;;2.27;1.60;;;;;;;;;;8349386;28;20481;-59
2022/06/29 13:03:21;;;;;;;2.15;1.95;;;;;;;;;;8348754;28;20041;-59
2022/06/29 13:07:26;;;;;;;3.22;2.13;;;;;;;;;;8349446;28;20034;-60
2022/06/29 13:11:26;;;;;;;3.63;1.80;;;;;;;;;;8349286;28;20035;-59
2022/06/29 13:15:26;;;;;;;2.72;1.70;;;;;;;;;;8346564;28;20063;-60
2022/06/29 13:19:26;;;;;;;2.28;1.65;;;;;;;;;;8345313;28;20028;-59
2022/06/29 13:23:27;;;;;;;1.77;1.67;;;;;;;;;;8350189;28;20110;-60
2022/06/29 13:27:27;;;;;;;4.47;2.00;;;;;;;;;;8344732;28;20106;-59
2022/06/29 13:31:28;;;;;;;1.50;1.40;;;;;;;;;;8346889;28;20041;-59
2022/06/29 13:35:28;;;;;;;2.03;1.50;;;;;;;;;;8349685;28;20335;-59
2022/06/29 13:39:28;;;;;;;4.00;1.93;;;;;;;;;;8347397;28;20013;-60
2022/06/29 13:43:29;;;;;;;2.63;1.73;;;;;;;;;;8350121;28;20258;-59
2022/06/29 13:47:29;;;;;;;1.77;1.52;;;;;;;;;;8346180;28;20440;-60
2022/06/29 13:51:29;;;;;;;2.63;1.50;;;;;;;;;;8347093;28;20479;-60
2022/06/29 13:55:30;;;;;;;2.13;1.83;;;;;;;;;;8347447;28;21153;-59
2022/06/29 13:59:30;;;;;;;1.77;1.67;;;;;;;;;;8346222;28;20047;-59
2022/06/29 14:03:30;;;;;;;5.95;1.70;;;;;;;;;;8347577;28;20044;-59
2022/06/29 14:07:30;;;;;;;3.63;1.90;;;;;;;;;;8347588;28;20048;-59
2022/06/29 14:11:31;;;;;;;2.38;1.60;;;;;;;;;;8346531;28;20024;-59
2022/06/29 14:15:31;;;;;;;4.00;1.80;;;;;;;;;;8346630;28;20841;-59
2022/06/29 14:19:32;;;;;;;2.35;1.70;;;;;;;;;;8346740;28;20035;-60
2022/06/29 14:23:34;;;;;;;2.17;1.75;;;;;;;;;;8343275;28;20399;-59
2022/06/29 14:27:34;;;;;;;5.85;1.60;;;;;;;;;;8344852;28;20032;-59
2022/06/29 14:31:34;;;;;;;3.80;1.80;;;;;;;;;;8341564;28;20109;-59
2022/06/29 14:35:35;;;;;;;2.63;1.60;;;;;;;;;;8340601;28;20021;-60
2022/06/29 14:39:36;;;;;;;7.83;1.90;;;;;;;;;;8339524;28;20028;-59
2022/06/29 14:43:36;;;;;;;5.85;1.40;;;;;;;;;;8338206;28;20712;-60
2022/06/29 14:47:38;;;;;;;1.85;1.52;;;;;;;;;;8340078;28;20083;-60
2022/06/29 14:51:38;;;;;;;4.50;1.77;;;;;;;;;;8346783;28;20097;-62
2022/06/29 14:55:39;;;;;;;2.83;1.65;;;;;;;;;;8349395;28;20147;-61
2022/06/29 14:59:39;;;;;;;1.80;1.70;;;;;;;;;;8353666;28;20028;-60
2022/06/29 15:03:39;;;;;;;2.97;1.67;;;;;;;;;;8349863;28;20041;-60
2022/06/29 15:07:40;;;;;;;2.17;1.77;;;;;;;;;;8353215;28;20029;-61
2022/06/29 15:11:42;;;;;;;1.70;1.60;;;;;;;;;;8350537;28;20445;-61
2022/06/29 15:15:46;;;;;;;3.58;1.80;;;;;;;;;;8346862;28;20371;-60
2022/06/29 15:19:46;;;;;;;2.97;1.90;;;;;;;;;;8349331;28;20044;-59
2022/06/29 15:23:47;;;;;;;1.95;1.73;;;;;;;;;;8346374;28;20040;-59
2022/06/29 15:27:47;;;;;;;4.97;1.67;;;;;;;;;;8346184;28;20134;-59
2022/06/29 15:31:47;;;;;;;2.28;1.60;;;;;;;;;;8347460;28;20052;-58
2022/06/29 15:40:06;;;;;;;5.35;2.08;;;;;;;;;;8353822;28;20082;-60
2022/06/29 15:44:07;;;;;;;4.00;1.70;;;;;;;;;;8356551;28;20032;-61
2022/06/29 15:48:07;;;;;;;6.68;1.90;;;;;;;;;;8351943;28;20076;-60
2022/06/29 15:52:08;;;;;;;1.90;1.77;;;;;;;;;;8344927;28;20058;-59
2022/06/29 15:56:08;;;;;;;2.93;1.90;;;;;;;;;;8345537;28;20271;-61
2022/06/29 16:00:10;;;;;;;3.63;1.45;;;;;;;;;;8347096;28;21322;-60
2022/06/29 16:04:10;;;;;;;2.55;1.70;;;;;;;;;;8348582;28;20028;-59
2022/06/29 16:08:10;;;;;;;3.63;1.97;;;;;;;;;;8348149;28;20033;-59
2022/06/29 16:12:13;;;;;;;1.90;1.80;;;;;;;;;;8344532;28;20025;-59
2022/06/29 16:16:13;;;;;;;4.93;2.08;;;;;;;;;;8347601;28;20646;-59
2022/06/29 16:20:13;;;;;;;4.30;2.10;;;;;;;;;;8346363;28;20024;-59
2022/06/29 16:24:14;;;;;;;3.07;2.10;;;;;;;;;;8346680;28;20028;-59
2022/06/29 16:28:14;;;;;;;2.40;1.90;;;;;;;;;;8347563;28;20336;-59
2022/06/29 16:32:14;;;;;;;3.05;1.90;;;;;;;;;;8350190;28;20864;-59
2022/06/29 16:36:14;;;;;;;3.70;2.10;;;;;;;;;;8349343;28;20029;-59
2022/06/29 16:40:14;;;;;;;2.00;1.90;;;;;;;;;;8353410;28;20124;-59
2022/06/29 16:44:15;;;;;;;3.60;2.10;;;;;;;;;;8351361;28;20017;-59
2022/06/29 16:48:15;;;;;;;1.95;1.80;;;;;;;;;;8350298;28;20333;-60
2022/06/29 16:52:15;;;;;;;3.72;2.00;;;;;;;;;;8352875;28;20036;-59
2022/06/29 16:56:15;;;;;;;4.22;2.20;;;;;;;;;;8353108;28;20462;-59
2022/06/29 17:00:16;;;;;;;2.42;2.20;;;;;;;;;;8352500;28;20032;-60
2022/06/29 17:04:16;;;;;;;3.83;1.98;;;;;;;;;;8350279;28;20083;-59
2022/06/29 17:08:16;;;;;;;3.17;2.10;;;;;;;;;;8352350;28;20028;-59
2022/06/29 17:12:17;;;;;;;2.60;1.90;;;;;;;;;;8353288;28;20024;-59
2022/06/29 17:16:17;;;;;;;2.87;1.90;;;;;;;;;;8350261;28;20141;-59
2022/06/29 17:20:20;;;;;;;3.40;2.10;;;;;;;;;;8353788;28;20571;-59
2022/06/29 17:24:20;;;;;;;3.00;2.10;;;;;;;;;;8351371;28;20028;-60
2022/06/29 17:28:20;;;;;;;3.00;1.80;;;;;;;;;;8347510;28;20074;-60
2022/06/29 17:32:21;;;;;;;2.85;1.80;;;;;;;;;;8351449;28;20070;-59
2022/06/29 17:36:21;;;;;;;2.27;2.00;;;;;;;;;;8350898;28;20025;-59
2022/06/29 17:40:21;;;;;;;2.43;1.93;;;;;;;;;;8349877;28;20025;-59
2022/06/29 17:44:21;;;;;;;2.50;1.97;;;;;;;;;;8350559;28;20107;-59
2022/06/29 17:48:22;;;;;;;2.95;2.00;;;;;;;;;;8349872;28;20135;-60
2022/06/29 17:52:22;;;;;;;3.53;1.70;;;;;;;;;;8356303;28;20063;-60
2022/06/29 17:56:22;;;;;;;3.97;2.00;;;;;;;;;;8352376;28;20048;-59
2022/06/29 18:00:22;;;;;;;3.78;2.30;;;;;;;;;;8349360;28;20358;-59
2022/06/29 18:04:23;;;;;;;2.67;1.95;;;;;;;;;;8352253;28;20074;-59
2022/06/29 18:08:24;;;;;;;4.22;1.80;;;;;;;;;;8350967;28;20024;-59
2022/06/29 18:12:24;;;;;;;7.30;1.90;;;;;;;;;;8350229;28;20657;-60
2022/06/29 18:16:24;;;;;;;2.38;2.00;;;;;;;;;;8348606;28;20037;-59
2022/06/29 18:20:24;;;;;;;2.33;1.80;;;;;;;;;;8348871;28;20052;-59
2022/06/29 18:24:25;;;;;;;2.50;1.80;;;;;;;;;;8350847;28;20035;-59
2022/06/29 18:28:25;;;;;;;1.83;1.70;;;;;;;;;;8351572;28;20140;-59
2022/06/29 18:32:25;;;;;;;1.70;1.50;;;;;;;;;;8349762;28;20518;-59
2022/06/29 18:36:27;;;;;;;2.95;1.88;;;;;;;;;;8350701;28;20021;-59
2022/06/29 18:40:27;;;;;;;2.08;1.90;;;;;;;;;;8348655;28;20031;-60
2022/06/29 18:44:27;;;;;;;1.90;1.75;;;;;;;;;;8350896;28;20056;-59
2022/06/29 18:48:28;;;;;;;2.33;1.70;;;;;;;;;;8350716;28;20124;-59
2022/06/29 18:52:29;;;;;;;1.80;1.70;;;;;;;;;;8357563;28;20036;-60
2022/06/29 18:56:29;;;;;;;3.22;1.75;;;;;;;;;;8355459;28;20025;-59
2022/06/29 19:00:32;;;;;;;2.75;1.95;;;;;;;;;;8353241;28;20072;-59
2022/06/29 19:04:32;;;;;;;2.53;2.03;;;;;;;;;;8354704;28;20384;-60
2022/06/29 19:08:33;;;;;;;2.40;1.83;;;;;;;;;;8357809;28;20143;-59
2022/06/29 19:12:33;;;;;;;2.35;2.13;;;;;;;;;;8355195;28;20028;-60
2022/06/29 19:16:33;;;;;;;2.50;1.73;;;;;;;;;;8353193;28;20138;-59
2022/06/29 19:20:33;;;;;;;2.10;1.90;;;;;;;;;;8357668;28;20024;-59
2022/06/29 19:24:34;;;;;;;1.95;1.83;;;;;;;;;;8353639;28;20106;-59
2022/06/29 19:28:34;;;;;;;1.90;1.80;;;;;;;;;;8354856;28;20481;-59
2022/06/29 19:32:36;;;;;;;2.50;1.98;;;;;;;;;;8352120;28;20752;-60
2022/06/29 19:36:38;;;;;;;2.45;2.03;;;;;;;;;;8354505;28;20855;-59
2022/06/29 19:40:39;;;;;;;2.22;2.03;;;;;;;;;;8353476;28;20673;-59
2022/06/29 19:44:39;;;;;;;3.65;1.80;;;;;;;;;;8356291;28;20030;-59
2022/06/29 19:48:39;;;;;;;5.60;2.00;;;;;;;;;;8352436;28;20082;-60
2022/06/29 19:52:39;;;;;;;2.20;2.00;;;;;;;;;;8353374;28;20326;-59
2022/06/29 19:56:39;;;;;;;3.17;2.00;;;;;;;;;;8353115;28;20028;-59
2022/06/29 20:00:40;;;;;;;2.10;1.90;;;;;;;;;;8350391;28;20033;-59
2022/06/29 20:04:40;;;;;;;3.38;2.10;;;;;;;;;;8355362;28;20135;-61
2022/06/29 20:08:40;;;;;;;3.63;2.00;;;;;;;;;;8353250;28;20052;-59
2022/06/29 20:12:40;;;;;;;5.93;1.92;;;;;;;;;;8354649;28;20658;-59
2022/06/29 20:16:40;;;;;;;4.15;2.20;;;;;;;;;;8353081;28;20056;-59
2022/06/29 20:20:41;;;;;;;3.20;2.20;;;;;;;;;;8356154;28;20517;-59
2022/06/29 20:24:41;;;;;;;3.20;2.20;;;;;;;;;;8354069;28;20521;-59
2022/06/29 20:28:41;;;;;;;3.38;2.35;;;;;;;;;;8355246;28;20023;-59
2022/06/29 20:32:42;;;;;;;2.95;2.15;;;;;;;;;;8351318;28;20094;-60
2022/06/29 20:36:42;;;;;;;3.55;2.13;;;;;;;;;;8351772;28;20028;-58
2022/06/29 20:40:42;;;;;;;2.33;2.10;;;;;;;;;;8349163;28;20032;-59
2022/06/29 20:49:02;;;;;;;2.30;2.10;;;;;;;;;;8351201;28;20540;-59
2022/06/29 20:53:03;;;;;;;4.47;2.22;;;;;;;;;;8349588;28;20548;-58
2022/06/29 20:57:05;;;;;;;2.75;2.38;;;;;;;;;;8348179;28;20024;-58
2022/06/29 21:01:06;;;;;;;2.90;2.30;;;;;;;;;;8342551;28;20098;-59
2022/06/29 21:05:07;;;;;;;3.55;2.20;;;;;;;;;;8341090;28;20155;-60
2022/06/29 21:09:09;;;;;;;2.67;1.95;;;;;;;;;;8345744;28;20093;-59
2022/06/29 21:13:09;;;;;;;2.45;2.00;;;;;;;;;;8346134;28;20041;-59
2022/06/29 21:17:10;;;;;;;5.07;1.92;;;;;;;;;;8346637;28;20039;-58
2022/06/29 21:21:14;;;;;;;2.80;2.05;;;;;;;;;;8347209;28;20039;-58
2022/06/29 21:25:15;;;;;;;2.35;2.08;;;;;;;;;;8351586;28;20032;-59
2022/06/29 21:29:15;;;;;;;2.78;1.88;;;;;;;;;;8348068;28;20078;-59
2022/06/29 21:33:15;;;;;;;2.23;2.03;;;;;;;;;;8348312;28;20614;-59
2022/06/29 21:37:15;;;;;;;2.22;1.88;;;;;;;;;;8348741;28;20270;-59
2022/06/29 21:41:16;;;;;;;2.03;1.90;;;;;;;;;;8349514;28;20072;-58
2022/06/29 21:45:17;;;;;;;2.03;1.90;;;;;;;;;;8350085;28;20036;-59
2022/06/29 21:53:40;;;;;;;2.47;2.10;;;;;;;;;;8349495;28;20039;-59
2022/06/29 21:57:40;;;;;;;4.70;2.10;;;;;;;;;;8350123;28;20132;-59
2022/06/29 22:01:40;;;;;;;2.97;2.00;;;;;;;;;;8350126;28;20033;-59
2022/06/29 22:05:40;;;;;;;4.23;2.20;;;;;;;;;;8352019;28;20028;-59
2022/06/29 22:09:41;;;;;;;3.33;1.90;;;;;;;;;;8350788;28;20037;-59
2022/06/29 22:13:41;;;;;;;1.90;1.80;;;;;;;;;;8349617;28;20778;-59
2022/06/29 22:17:41;;;;;;;3.72;2.20;;;;;;;;;;8344702;28;20507;-59
2022/06/29 22:21:41;;;;;;;2.13;2.00;;;;;;;;;;8348672;28;20586;-59
2022/06/29 22:25:42;;;;;;;3.97;1.88;;;;;;;;;;8352851;28;20024;-60
2022/06/29 22:29:42;;;;;;;2.05;1.85;;;;;;;;;;8356825;28;20502;-59
2022/06/29 22:33:43;;;;;;;1.83;1.70;;;;;;;;;;8351301;28;20173;-60
2022/06/29 22:37:43;;;;;;;2.38;2.00;;;;;;;;;;8357926;28;20128;-59
2022/06/29 22:41:52;;;;;;;3.45;1.90;;;;;;;;;;8358099;28;20079;-60
2022/06/29 22:45:53;;;;;;;3.42;2.40;;;;;;;;;;8356042;28;20064;-59
2022/06/29 22:49:53;;;;;;;4.45;2.13;;;;;;;;;;8352568;28;20032;-59
2022/06/29 22:53:53;;;;;;;5.13;2.10;;;;;;;;;;8357461;28;20447;-59
2022/06/29 22:57:53;;;;;;;3.00;2.25;;;;;;;;;;8353193;28;20503;-59
2022/06/29 23:01:53;;;;;;;4.97;2.10;;;;;;;;;;8357422;28;20043;-59
2022/06/29 23:05:53;;;;;;;4.03;2.30;;;;;;;;;;8355126;28;20394;-59
2022/06/29 23:09:54;;;;;;;4.30;2.03;;;;;;;;;;8356294;28;20135;-60
2022/06/29 23:13:54;;;;;;;2.63;2.10;;;;;;;;;;8356929;28;20063;-58
2022/06/29 23:17:54;;;;;;;3.83;2.20;;;;;;;;;;8355737;28;20139;-58
2022/06/29 23:21:54;;;;;;;3.15;2.20;;;;;;;;;;8354944;28;20965;-59
2022/06/29 23:25:55;;;;;;;2.83;1.92;;;;;;;;;;8351904;28;20597;-59
2022/06/29 23:29:55;;;;;;;2.88;2.10;;;;;;;;;;8353761;28;20028;-58
2022/06/29 23:33:55;;;;;;;2.55;2.30;;;;;;;;;;8353044;28;20069;-59
2022/06/29 23:37:55;;;;;;;2.85;2.30;;;;;;;;;;8356072;28;20025;-59
2022/06/29 23:41:56;;;;;;;5.03;2.08;;;;;;;;;;8351103;28;21577;-59
2022/06/29 23:45:56;;;;;;;3.67;2.10;;;;;;;;;;8355825;28;20071;-59
2022/06/29 23:49:56;;;;;;;2.78;2.17;;;;;;;;;;8354426;28;20029;-59
2022/06/29 23:53:56;;;;;;;2.50;2.20;;;;;;;;;;8352647;28;20036;-60
2022/06/29 23:57:57;;;;;;;2.53;2.13;;;;;;;;;;8358132;28;20536;-58
